sensor_id;sensor_type;location;lat;lon;timestamp;P1;durP1;ratioP1;P2;durP2;ratioP2
78122;SDS011;67376;44.802;10.332;2023-04-06T00:01:07;3.80;;;2.25;;
78122;SDS011;67376;44.802;10.332;2023-04-06T00:03:33;3.35;;;2.20;;
78122;SDS011;67376;44.802;10.332;2023-04-06T00:05:59;3.95;;;2.15;;
78122;SDS011;67376;44.802;10.332;2023-04-06T00:08:25;4.78;;;2.22;;
78122;SDS011;67376;44.802;10.332;2023-04-06T00:10:51;5.65;;;2.35;;
78122;SDS011;67376;44.802;10.332;2023-04-06T00:13:16;3.30;;;2.00;;
78122;SDS011;67376;44.802;10.332;2023-04-06T00:15:41;5.10;;;2.10;;
78122;SDS011;67376;44.802;10.332;2023-04-06T00:18:07;4.28;;;1.73;;
78122;SDS011;67376;44.802;10.332;2023-04-06T00:20:32;3.78;;;2.10;;
78122;SDS011;67376;44.802;10.332;2023-04-06T00:22:58;4.35;;;2.05;;
78122;SDS011;67376;44.802;10.332;2023-04-06T00:25:23;3.88;;;2.05;;
78122;SDS011;67376;44.802;10.332;2023-04-06T00:27:48;5.25;;;2.45;;
78122;SDS011;67376;44.802;10.332;2023-04-06T00:30:14;3.97;;;2.00;;
78122;SDS011;67376;44.802;10.332;2023-04-06T00:32:39;4.78;;;2.05;;
78122;SDS011;67376;44.802;10.332;2023-04-06T00:35:05;2.97;;;1.90;;
78122;SDS011;67376;44.802;10.332;2023-04-06T00:37:31;3.83;;;1.98;;
78122;SDS011;67376;44.802;10.332;2023-04-06T00:39:57;4.07;;;2.00;;
78122;SDS011;67376;44.802;10.332;2023-04-06T00:42:23;3.25;;;2.10;;
78122;SDS011;67376;44.802;10.332;2023-04-06T00:44:55;2.30;;;1.80;;
78122;SDS011;67376;44.802;10.332;2023-04-06T00:47:22;3.58;;;2.00;;
78122;SDS011;67376;44.802;10.332;2023-04-06T00:49:50;4.82;;;2.05;;
78122;SDS011;67376;44.802;10.332;2023-04-06T00:52:16;5.28;;;2.15;;
78122;SDS011;67376;44.802;10.332;2023-04-06T00:54:42;6.03;;;2.55;;
78122;SDS011;67376;44.802;10.332;2023-04-06T00:57:07;3.17;;;2.13;;
78122;SDS011;67376;44.802;10.332;2023-04-06T00:59:33;3.90;;;2.30;;
78122;SDS011;67376;44.802;10.332;2023-04-06T01:01:59;3.47;;;2.15;;
78122;SDS011;67376;44.802;10.332;2023-04-06T01:04:24;4.88;;;2.10;;
78122;SDS011;67376;44.802;10.332;2023-04-06T01:06:50;4.05;;;2.25;;
78122;SDS011;67376;44.802;10.332;2023-04-06T01:09:19;2.90;;;1.95;;
78122;SDS011;67376;44.802;10.332;2023-04-06T01:11:44;4.18;;;2.10;;
78122;SDS011;67376;44.802;10.332;2023-04-06T01:14:09;3.63;;;2.00;;
78122;SDS011;67376;44.802;10.332;2023-04-06T01:16:35;3.88;;;1.95;;
78122;SDS011;67376;44.802;10.332;2023-04-06T01:19:06;4.60;;;2.20;;
78122;SDS011;67376;44.802;10.332;2023-04-06T01:21:33;2.85;;;2.10;;
78122;SDS011;67376;44.802;10.332;2023-04-06T01:23:59;2.67;;;1.92;;
78122;SDS011;67376;44.802;10.332;2023-04-06T01:26:24;4.32;;;2.00;;
78122;SDS011;67376;44.802;10.332;2023-04-06T01:28:51;5.30;;;2.25;;
78122;SDS011;67376;44.802;10.332;2023-04-06T01:31:17;3.17;;;1.95;;
78122;SDS011;67376;44.802;10.332;2023-04-06T01:33:42;4.55;;;2.20;;
78122;SDS011;67376;44.802;10.332;2023-04-06T01:36:08;4.03;;;2.15;;
78122;SDS011;67376;44.802;10.332;2023-04-06T01:38:33;3.60;;;2.08;;
78122;SDS011;67376;44.802;10.332;2023-04-06T01:40:58;3.40;;;2.10;;
78122;SDS011;67376;44.802;10.332;2023-04-06T01:43:24;4.00;;;2.10;;
78122;SDS011;67376;44.802;10.332;2023-04-06T01:45:50;3.17;;;2.05;;
78122;SDS011;67376;44.802;10.332;2023-04-06T01:48:15;4.82;;;2.20;;
78122;SDS011;67376;44.802;10.332;2023-04-06T01:50:41;3.63;;;2.15;;
78122;SDS011;67376;44.802;10.332;2023-04-06T01:53:07;3.42;;;2.03;;
78122;SDS011;67376;44.802;10.332;2023-04-06T01:55:32;3.35;;;2.05;;
78122;SDS011;67376;44.802;10.332;2023-04-06T01:57:57;2.38;;;1.80;;
78122;SDS011;67376;44.802;10.332;2023-04-06T02:00:23;4.25;;;1.77;;
78122;SDS011;67376;44.802;10.332;2023-04-06T02:02:48;3.33;;;1.80;;
78122;SDS011;67376;44.802;10.332;2023-04-06T02:05:13;3.63;;;1.95;;
78122;SDS011;67376;44.802;10.332;2023-04-06T02:07:39;3.35;;;2.20;;
78122;SDS011;67376;44.802;10.332;2023-04-06T02:10:10;2.45;;;1.60;;
78122;SDS011;67376;44.802;10.332;2023-04-06T02:12:37;2.78;;;1.70;;
78122;SDS011;67376;44.802;10.332;2023-04-06T02:15:02;3.50;;;2.22;;
78122;SDS011;67376;44.802;10.332;2023-04-06T02:17:28;2.95;;;1.92;;
78122;SDS011;67376;44.802;10.332;2023-04-06T02:19:53;3.20;;;2.05;;
78122;SDS011;67376;44.802;10.332;2023-04-06T02:22:19;2.60;;;2.00;;
78122;SDS011;67376;44.802;10.332;2023-04-06T02:24:44;3.28;;;2.08;;
78122;SDS011;67376;44.802;10.332;2023-04-06T02:27:10;4.45;;;2.10;;
78122;SDS011;67376;44.802;10.332;2023-04-06T02:29:35;2.17;;;1.70;;
78122;SDS011;67376;44.802;10.332;2023-04-06T02:32:01;3.72;;;1.80;;
78122;SDS011;67376;44.802;10.332;2023-04-06T02:34:26;2.55;;;2.00;;
78122;SDS011;67376;44.802;10.332;2023-04-06T02:36:52;4.38;;;2.00;;
78122;SDS011;67376;44.802;10.332;2023-04-06T02:39:17;4.93;;;1.92;;
78122;SDS011;67376;44.802;10.332;2023-04-06T02:41:42;2.92;;;2.00;;
78122;SDS011;67376;44.802;10.332;2023-04-06T02:44:08;3.72;;;2.28;;
78122;SDS011;67376;44.802;10.332;2023-04-06T02:46:34;3.50;;;2.20;;
78122;SDS011;67376;44.802;10.332;2023-04-06T02:48:59;2.97;;;1.80;;
78122;SDS011;67376;44.802;10.332;2023-04-06T02:51:25;3.47;;;2.20;;
78122;SDS011;67376;44.802;10.332;2023-04-06T02:53:51;3.70;;;1.88;;
78122;SDS011;67376;44.802;10.332;2023-04-06T02:56:17;2.70;;;1.77;;
78122;SDS011;67376;44.802;10.332;2023-04-06T02:58:42;4.63;;;2.13;;
78122;SDS011;67376;44.802;10.332;2023-04-06T03:01:08;2.60;;;1.63;;
78122;SDS011;67376;44.802;10.332;2023-04-06T03:03:33;3.55;;;1.80;;
78122;SDS011;67376;44.802;10.332;2023-04-06T03:05:58;3.13;;;1.80;;
78122;SDS011;67376;44.802;10.332;2023-04-06T03:08:26;4.50;;;2.10;;
78122;SDS011;67376;44.802;10.332;2023-04-06T03:10:51;3.50;;;1.90;;
78122;SDS011;67376;44.802;10.332;2023-04-06T03:13:17;3.40;;;2.00;;
78122;SDS011;67376;44.802;10.332;2023-04-06T03:15:43;3.05;;;1.77;;
78122;SDS011;67376;44.802;10.332;2023-04-06T03:18:08;4.25;;;1.98;;
78122;SDS011;67376;44.802;10.332;2023-04-06T03:20:33;2.40;;;1.70;;
78122;SDS011;67376;44.802;10.332;2023-04-06T03:22:59;3.22;;;1.70;;
78122;SDS011;67376;44.802;10.332;2023-04-06T03:25:25;2.88;;;1.90;;
78122;SDS011;67376;44.802;10.332;2023-04-06T03:27:50;2.70;;;1.88;;
78122;SDS011;67376;44.802;10.332;2023-04-06T03:30:15;3.22;;;1.92;;
78122;SDS011;67376;44.802;10.332;2023-04-06T03:32:42;4.28;;;1.92;;
78122;SDS011;67376;44.802;10.332;2023-04-06T03:35:08;3.25;;;2.15;;
78122;SDS011;67376;44.802;10.332;2023-04-06T03:37:34;3.53;;;2.03;;
78122;SDS011;67376;44.802;10.332;2023-04-06T03:40:00;3.58;;;1.88;;
78122;SDS011;67376;44.802;10.332;2023-04-06T03:42:26;4.05;;;2.10;;
78122;SDS011;67376;44.802;10.332;2023-04-06T03:44:51;2.83;;;1.85;;
78122;SDS011;67376;44.802;10.332;2023-04-06T03:47:17;2.58;;;1.58;;
78122;SDS011;67376;44.802;10.332;2023-04-06T03:49:42;3.70;;;1.83;;
78122;SDS011;67376;44.802;10.332;2023-04-06T03:52:08;9.10;;;2.03;;
78122;SDS011;67376;44.802;10.332;2023-04-06T03:54:33;3.60;;;1.80;;
78122;SDS011;67376;44.802;10.332;2023-04-06T03:56:58;1.85;;;1.58;;
78122;SDS011;67376;44.802;10.332;2023-04-06T03:59:25;2.55;;;1.83;;
78122;SDS011;67376;44.802;10.332;2023-04-06T04:01:50;4.03;;;2.00;;
78122;SDS011;67376;44.802;10.332;2023-04-06T04:04:16;2.53;;;1.77;;
78122;SDS011;67376;44.802;10.332;2023-04-06T04:06:41;2.55;;;1.70;;
78122;SDS011;67376;44.802;10.332;2023-04-06T04:09:06;3.42;;;1.95;;
78122;SDS011;67376;44.802;10.332;2023-04-06T04:11:32;5.15;;;2.00;;
78122;SDS011;67376;44.802;10.332;2023-04-06T04:13:57;3.38;;;2.13;;
78122;SDS011;67376;44.802;10.332;2023-04-06T04:16:23;6.18;;;2.33;;
78122;SDS011;67376;44.802;10.332;2023-04-06T04:18:48;3.92;;;2.10;;
78122;SDS011;67376;44.802;10.332;2023-04-06T04:21:13;3.28;;;2.10;;
78122;SDS011;67376;44.802;10.332;2023-04-06T04:23:39;4.30;;;1.98;;
78122;SDS011;67376;44.802;10.332;2023-04-06T04:26:04;4.50;;;2.17;;
78122;SDS011;67376;44.802;10.332;2023-04-06T04:28:30;3.80;;;2.00;;
78122;SDS011;67376;44.802;10.332;2023-04-06T04:30:56;3.25;;;2.05;;
78122;SDS011;67376;44.802;10.332;2023-04-06T04:33:21;3.85;;;2.38;;
78122;SDS011;67376;44.802;10.332;2023-04-06T04:35:47;2.90;;;2.40;;
78122;SDS011;67376;44.802;10.332;2023-04-06T04:38:13;8.13;;;2.33;;
78122;SDS011;67376;44.802;10.332;2023-04-06T04:40:38;3.08;;;1.90;;
78122;SDS011;67376;44.802;10.332;2023-04-06T04:43:04;6.80;;;2.40;;
78122;SDS011;67376;44.802;10.332;2023-04-06T04:45:29;3.08;;;2.33;;
78122;SDS011;67376;44.802;10.332;2023-04-06T04:47:55;6.05;;;2.20;;
78122;SDS011;67376;44.802;10.332;2023-04-06T04:50:20;7.68;;;3.13;;
78122;SDS011;67376;44.802;10.332;2023-04-06T04:52:46;8.25;;;2.20;;
78122;SDS011;67376;44.802;10.332;2023-04-06T04:55:11;5.68;;;2.42;;
78122;SDS011;67376;44.802;10.332;2023-04-06T04:57:37;3.83;;;1.98;;
78122;SDS011;67376;44.802;10.332;2023-04-06T05:00:02;4.20;;;2.13;;
78122;SDS011;67376;44.802;10.332;2023-04-06T05:02:28;4.07;;;1.90;;
78122;SDS011;67376;44.802;10.332;2023-04-06T05:04:53;4.75;;;2.40;;
78122;SDS011;67376;44.802;10.332;2023-04-06T05:07:19;6.45;;;2.47;;
78122;SDS011;67376;44.802;10.332;2023-04-06T05:09:45;6.20;;;2.13;;
78122;SDS011;67376;44.802;10.332;2023-04-06T05:12:11;6.30;;;2.55;;
78122;SDS011;67376;44.802;10.332;2023-04-06T05:14:37;4.82;;;2.60;;
78122;SDS011;67376;44.802;10.332;2023-04-06T05:17:02;5.82;;;2.00;;
78122;SDS011;67376;44.802;10.332;2023-04-06T05:19:27;6.68;;;2.30;;
78122;SDS011;67376;44.802;10.332;2023-04-06T05:21:53;4.50;;;2.28;;
78122;SDS011;67376;44.802;10.332;2023-04-06T05:24:18;3.47;;;2.05;;
78122;SDS011;67376;44.802;10.332;2023-04-06T05:26:44;3.92;;;2.28;;
78122;SDS011;67376;44.802;10.332;2023-04-06T05:29:10;7.03;;;2.08;;
78122;SDS011;67376;44.802;10.332;2023-04-06T05:31:35;6.15;;;2.40;;
78122;SDS011;67376;44.802;10.332;2023-04-06T05:34:01;6.10;;;2.00;;
78122;SDS011;67376;44.802;10.332;2023-04-06T05:36:26;6.57;;;2.35;;
78122;SDS011;67376;44.802;10.332;2023-04-06T05:38:52;5.55;;;2.22;;
78122;SDS011;67376;44.802;10.332;2023-04-06T05:41:17;4.28;;;2.30;;
78122;SDS011;67376;44.802;10.332;2023-04-06T05:43:43;3.25;;;2.10;;
78122;SDS011;67376;44.802;10.332;2023-04-06T05:46:09;4.00;;;2.20;;
78122;SDS011;67376;44.802;10.332;2023-04-06T05:48:35;5.10;;;2.20;;
78122;SDS011;67376;44.802;10.332;2023-04-06T05:51:00;4.40;;;2.47;;
78122;SDS011;67376;44.802;10.332;2023-04-06T05:53:27;4.38;;;2.55;;
78122;SDS011;67376;44.802;10.332;2023-04-06T05:55:54;5.28;;;2.40;;
78122;SDS011;67376;44.802;10.332;2023-04-06T05:58:19;6.43;;;2.30;;
78122;SDS011;67376;44.802;10.332;2023-04-06T06:00:45;5.75;;;2.72;;
78122;SDS011;67376;44.802;10.332;2023-04-06T06:03:11;3.28;;;2.22;;
78122;SDS011;67376;44.802;10.332;2023-04-06T06:05:37;4.30;;;2.10;;
78122;SDS011;67376;44.802;10.332;2023-04-06T06:08:02;7.72;;;2.63;;
78122;SDS011;67376;44.802;10.332;2023-04-06T06:10:28;3.20;;;2.13;;
78122;SDS011;67376;44.802;10.332;2023-04-06T06:12:53;4.75;;;2.50;;
78122;SDS011;67376;44.802;10.332;2023-04-06T06:15:18;4.57;;;2.53;;
78122;SDS011;67376;44.802;10.332;2023-04-06T06:17:44;4.35;;;2.33;;
78122;SDS011;67376;44.802;10.332;2023-04-06T06:20:10;6.68;;;2.50;;
78122;SDS011;67376;44.802;10.332;2023-04-06T06:22:35;5.75;;;2.63;;
78122;SDS011;67376;44.802;10.332;2023-04-06T06:25:01;5.82;;;2.30;;
78122;SDS011;67376;44.802;10.332;2023-04-06T06:27:27;6.03;;;2.85;;
78122;SDS011;67376;44.802;10.332;2023-04-06T06:29:52;5.40;;;2.65;;
78122;SDS011;67376;44.802;10.332;2023-04-06T06:32:18;9.40;;;2.50;;
78122;SDS011;67376;44.802;10.332;2023-04-06T06:34:43;4.25;;;2.55;;
78122;SDS011;67376;44.802;10.332;2023-04-06T06:37:09;6.35;;;3.28;;
78122;SDS011;67376;44.802;10.332;2023-04-06T06:39:34;5.60;;;2.47;;
78122;SDS011;67376;44.802;10.332;2023-04-06T06:42:00;3.80;;;2.70;;
78122;SDS011;67376;44.802;10.332;2023-04-06T06:44:26;4.40;;;2.50;;
78122;SDS011;67376;44.802;10.332;2023-04-06T06:46:52;5.50;;;2.70;;
78122;SDS011;67376;44.802;10.332;2023-04-06T06:49:17;4.68;;;2.53;;
78122;SDS011;67376;44.802;10.332;2023-04-06T06:51:43;4.05;;;2.40;;
78122;SDS011;67376;44.802;10.332;2023-04-06T06:54:09;5.47;;;3.38;;
78122;SDS011;67376;44.802;10.332;2023-04-06T06:56:34;5.53;;;2.42;;
78122;SDS011;67376;44.802;10.332;2023-04-06T06:59:02;5.00;;;2.40;;
78122;SDS011;67376;44.802;10.332;2023-04-06T07:01:28;4.38;;;2.58;;
78122;SDS011;67376;44.802;10.332;2023-04-06T07:03:53;4.35;;;2.30;;
78122;SDS011;67376;44.802;10.332;2023-04-06T07:06:19;5.63;;;2.75;;
78122;SDS011;67376;44.802;10.332;2023-04-06T07:08:45;3.50;;;2.38;;
78122;SDS011;67376;44.802;10.332;2023-04-06T07:11:10;6.55;;;3.25;;
78122;SDS011;67376;44.802;10.332;2023-04-06T07:13:35;7.93;;;2.60;;
78122;SDS011;67376;44.802;10.332;2023-04-06T07:16:01;7.82;;;2.88;;
78122;SDS011;67376;44.802;10.332;2023-04-06T07:18:26;3.63;;;2.33;;
78122;SDS011;67376;44.802;10.332;2023-04-06T07:20:52;4.50;;;2.35;;
78122;SDS011;67376;44.802;10.332;2023-04-06T07:23:17;5.90;;;2.83;;
78122;SDS011;67376;44.802;10.332;2023-04-06T07:25:43;5.97;;;2.55;;
78122;SDS011;67376;44.802;10.332;2023-04-06T07:28:08;6.03;;;2.70;;
78122;SDS011;67376;44.802;10.332;2023-04-06T07:30:34;6.82;;;2.67;;
78122;SDS011;67376;44.802;10.332;2023-04-06T07:32:59;4.60;;;2.75;;
78122;SDS011;67376;44.802;10.332;2023-04-06T07:35:25;6.80;;;2.72;;
78122;SDS011;67376;44.802;10.332;2023-04-06T07:37:52;4.43;;;2.50;;
78122;SDS011;67376;44.802;10.332;2023-04-06T07:40:18;6.65;;;2.97;;
78122;SDS011;67376;44.802;10.332;2023-04-06T07:42:44;8.40;;;2.88;;
78122;SDS011;67376;44.802;10.332;2023-04-06T07:45:10;5.72;;;2.78;;
78122;SDS011;67376;44.802;10.332;2023-04-06T07:47:35;6.00;;;2.78;;
78122;SDS011;67376;44.802;10.332;2023-04-06T07:50:01;3.67;;;2.20;;
78122;SDS011;67376;44.802;10.332;2023-04-06T07:52:26;4.82;;;2.60;;
78122;SDS011;67376;44.802;10.332;2023-04-06T07:54:52;5.97;;;3.30;;
78122;SDS011;67376;44.802;10.332;2023-04-06T07:57:17;6.30;;;2.80;;
78122;SDS011;67376;44.802;10.332;2023-04-06T07:59:43;4.78;;;2.90;;
78122;SDS011;67376;44.802;10.332;2023-04-06T08:02:09;7.88;;;3.05;;
78122;SDS011;67376;44.802;10.332;2023-04-06T08:04:35;5.45;;;2.72;;
78122;SDS011;67376;44.802;10.332;2023-04-06T08:07:00;6.47;;;4.03;;
78122;SDS011;67376;44.802;10.332;2023-04-06T08:09:26;4.97;;;3.03;;
78122;SDS011;67376;44.802;10.332;2023-04-06T08:11:52;4.68;;;2.72;;
78122;SDS011;67376;44.802;10.332;2023-04-06T08:14:17;4.35;;;2.75;;
78122;SDS011;67376;44.802;10.332;2023-04-06T08:16:42;5.60;;;2.63;;
78122;SDS011;67376;44.802;10.332;2023-04-06T08:19:08;6.18;;;3.13;;
78122;SDS011;67376;44.802;10.332;2023-04-06T08:21:34;5.15;;;3.45;;
78122;SDS011;67376;44.802;10.332;2023-04-06T08:24:00;4.88;;;2.90;;
78122;SDS011;67376;44.802;10.332;2023-04-06T08:26:26;7.45;;;3.03;;
78122;SDS011;67376;44.802;10.332;2023-04-06T08:28:53;4.40;;;2.70;;
78122;SDS011;67376;44.802;10.332;2023-04-06T08:31:18;6.30;;;2.80;;
78122;SDS011;67376;44.802;10.332;2023-04-06T08:33:44;5.38;;;2.95;;
78122;SDS011;67376;44.802;10.332;2023-04-06T08:38:36;5.13;;;3.10;;
78122;SDS011;67376;44.802;10.332;2023-04-06T08:41:06;5.55;;;3.03;;
78122;SDS011;67376;44.802;10.332;2023-04-06T08:46:20;4.40;;;2.78;;
78122;SDS011;67376;44.802;10.332;2023-04-06T08:48:46;5.63;;;2.92;;
78122;SDS011;67376;44.802;10.332;2023-04-06T08:51:14;5.38;;;3.38;;
78122;SDS011;67376;44.802;10.332;2023-04-06T08:53:40;6.32;;;2.88;;
78122;SDS011;67376;44.802;10.332;2023-04-06T08:56:06;5.45;;;2.85;;
78122;SDS011;67376;44.802;10.332;2023-04-06T08:58:35;5.18;;;3.17;;
78122;SDS011;67376;44.802;10.332;2023-04-06T09:01:03;4.07;;;2.70;;
78122;SDS011;67376;44.802;10.332;2023-04-06T09:03:32;7.55;;;3.10;;
78122;SDS011;67376;44.802;10.332;2023-04-06T09:05:59;7.63;;;2.70;;
78122;SDS011;67376;44.802;10.332;2023-04-06T09:08:25;5.88;;;2.78;;
78122;SDS011;67376;44.802;10.332;2023-04-06T09:10:51;6.25;;;2.67;;
78122;SDS011;67376;44.802;10.332;2023-04-06T09:13:17;3.85;;;2.63;;
78122;SDS011;67376;44.802;10.332;2023-04-06T09:15:43;5.57;;;2.70;;
78122;SDS011;67376;44.802;10.332;2023-04-06T09:18:08;4.78;;;2.47;;
78122;SDS011;67376;44.802;10.332;2023-04-06T09:20:34;6.82;;;3.17;;
78122;SDS011;67376;44.802;10.332;2023-04-06T09:22:59;4.45;;;2.58;;
78122;SDS011;67376;44.802;10.332;2023-04-06T09:25:25;3.55;;;2.55;;
78122;SDS011;67376;44.802;10.332;2023-04-06T09:28:00;4.68;;;2.97;;
78122;SDS011;67376;44.802;10.332;2023-04-06T09:30:28;6.18;;;2.60;;
78122;SDS011;67376;44.802;10.332;2023-04-06T09:33:12;4.18;;;2.45;;
78122;SDS011;67376;44.802;10.332;2023-04-06T09:35:38;5.03;;;2.47;;
78122;SDS011;67376;44.802;10.332;2023-04-06T09:38:10;3.63;;;2.40;;
78122;SDS011;67376;44.802;10.332;2023-04-06T09:40:36;5.70;;;2.63;;
78122;SDS011;67376;44.802;10.332;2023-04-06T09:43:13;4.65;;;2.42;;
78122;SDS011;67376;44.802;10.332;2023-04-06T09:45:49;5.00;;;2.50;;
78122;SDS011;67376;44.802;10.332;2023-04-06T09:48:14;3.65;;;2.33;;
78122;SDS011;67376;44.802;10.332;2023-04-06T09:50:40;4.50;;;2.80;;
78122;SDS011;67376;44.802;10.332;2023-04-06T09:53:05;5.13;;;2.75;;
78122;SDS011;67376;44.802;10.332;2023-04-06T09:55:43;3.72;;;2.30;;
78122;SDS011;67376;44.802;10.332;2023-04-06T09:58:11;3.95;;;2.40;;
78122;SDS011;67376;44.802;10.332;2023-04-06T10:06:05;3.55;;;2.20;;
78122;SDS011;67376;44.802;10.332;2023-04-06T10:08:36;4.22;;;2.45;;
78122;SDS011;67376;44.802;10.332;2023-04-06T10:11:06;2.65;;;2.00;;
78122;SDS011;67376;44.802;10.332;2023-04-06T10:13:31;4.70;;;2.22;;
78122;SDS011;67376;44.802;10.332;2023-04-06T10:15:57;3.67;;;2.20;;
78122;SDS011;67376;44.802;10.332;2023-04-06T10:18:26;4.32;;;2.42;;
78122;SDS011;67376;44.802;10.332;2023-04-06T10:21:06;3.90;;;2.42;;
78122;SDS011;67376;44.802;10.332;2023-04-06T10:26:13;4.38;;;2.30;;
78122;SDS011;67376;44.802;10.332;2023-04-06T10:28:43;3.80;;;2.03;;
78122;SDS011;67376;44.802;10.332;2023-04-06T10:31:10;4.53;;;2.70;;
78122;SDS011;67376;44.802;10.332;2023-04-06T10:33:36;4.13;;;2.40;;
78122;SDS011;67376;44.802;10.332;2023-04-06T10:36:11;2.92;;;2.08;;
78122;SDS011;67376;44.802;10.332;2023-04-06T10:38:46;3.53;;;2.08;;
78122;SDS011;67376;44.802;10.332;2023-04-06T10:41:11;3.75;;;2.00;;
78122;SDS011;67376;44.802;10.332;2023-04-06T10:43:38;3.67;;;2.03;;
78122;SDS011;67376;44.802;10.332;2023-04-06T10:46:05;3.13;;;2.10;;
78122;SDS011;67376;44.802;10.332;2023-04-06T10:51:09;3.38;;;2.22;;
78122;SDS011;67376;44.802;10.332;2023-04-06T10:53:42;5.63;;;2.17;;
78122;SDS011;67376;44.802;10.332;2023-04-06T10:56:13;3.47;;;2.15;;
78122;SDS011;67376;44.802;10.332;2023-04-06T10:58:46;3.38;;;2.15;;
78122;SDS011;67376;44.802;10.332;2023-04-06T11:01:16;3.45;;;2.22;;
78122;SDS011;67376;44.802;10.332;2023-04-06T11:03:52;4.10;;;2.25;;
78122;SDS011;67376;44.802;10.332;2023-04-06T11:08:45;4.43;;;2.00;;
78122;SDS011;67376;44.802;10.332;2023-04-06T11:11:11;4.18;;;2.25;;
78122;SDS011;67376;44.802;10.332;2023-04-06T11:16:23;3.30;;;2.20;;
78122;SDS011;67376;44.802;10.332;2023-04-06T11:18:56;3.92;;;2.20;;
78122;SDS011;67376;44.802;10.332;2023-04-06T11:21:33;4.65;;;2.33;;
78122;SDS011;67376;44.802;10.332;2023-04-06T11:29:04;4.82;;;2.20;;
78122;SDS011;67376;44.802;10.332;2023-04-06T11:31:30;4.78;;;2.33;;
78122;SDS011;67376;44.802;10.332;2023-04-06T11:33:56;5.10;;;2.60;;
78122;SDS011;67376;44.802;10.332;2023-04-06T11:36:22;3.22;;;2.15;;
78122;SDS011;67376;44.802;10.332;2023-04-06T11:38:48;3.55;;;2.13;;
78122;SDS011;67376;44.802;10.332;2023-04-06T11:41:14;3.00;;;1.88;;
78122;SDS011;67376;44.802;10.332;2023-04-06T11:43:45;3.33;;;2.00;;
78122;SDS011;67376;44.802;10.332;2023-04-06T11:46:16;4.32;;;2.13;;
78122;SDS011;67376;44.802;10.332;2023-04-06T11:48:43;3.63;;;2.20;;
78122;SDS011;67376;44.802;10.332;2023-04-06T11:51:10;3.20;;;1.98;;
78122;SDS011;67376;44.802;10.332;2023-04-06T11:53:43;3.65;;;2.30;;
78122;SDS011;67376;44.802;10.332;2023-04-06T11:56:11;3.95;;;2.08;;
78122;SDS011;67376;44.802;10.332;2023-04-06T11:58:36;4.95;;;2.20;;
78122;SDS011;67376;44.802;10.332;2023-04-06T12:01:05;3.80;;;2.08;;
78122;SDS011;67376;44.802;10.332;2023-04-06T12:03:30;3.05;;;2.03;;
78122;SDS011;67376;44.802;10.332;2023-04-06T12:05:56;2.33;;;1.98;;
78122;SDS011;67376;44.802;10.332;2023-04-06T12:08:21;3.28;;;2.03;;
78122;SDS011;67376;44.802;10.332;2023-04-06T12:10:50;4.00;;;1.85;;
78122;SDS011;67376;44.802;10.332;2023-04-06T12:13:15;3.40;;;2.00;;
78122;SDS011;67376;44.802;10.332;2023-04-06T12:15:41;4.20;;;2.22;;
78122;SDS011;67376;44.802;10.332;2023-04-06T12:18:06;2.78;;;2.05;;
78122;SDS011;67376;44.802;10.332;2023-04-06T12:20:32;4.55;;;2.10;;
78122;SDS011;67376;44.802;10.332;2023-04-06T12:22:57;3.58;;;2.17;;
78122;SDS011;67376;44.802;10.332;2023-04-06T12:25:23;4.22;;;2.28;;
78122;SDS011;67376;44.802;10.332;2023-04-06T12:27:48;4.78;;;2.22;;
78122;SDS011;67376;44.802;10.332;2023-04-06T12:30:14;3.78;;;2.50;;
78122;SDS011;67376;44.802;10.332;2023-04-06T12:32:39;5.05;;;2.00;;
78122;SDS011;67376;44.802;10.332;2023-04-06T12:35:05;4.13;;;2.08;;
78122;SDS011;67376;44.802;10.332;2023-04-06T12:37:33;4.28;;;2.08;;
78122;SDS011;67376;44.802;10.332;2023-04-06T12:39:59;5.15;;;2.30;;
78122;SDS011;67376;44.802;10.332;2023-04-06T12:42:25;3.58;;;2.08;;
78122;SDS011;67376;44.802;10.332;2023-04-06T12:44:51;3.47;;;2.10;;
78122;SDS011;67376;44.802;10.332;2023-04-06T12:47:16;3.33;;;2.13;;
78122;SDS011;67376;44.802;10.332;2023-04-06T12:49:43;3.58;;;2.30;;
78122;SDS011;67376;44.802;10.332;2023-04-06T12:52:08;2.75;;;1.95;;
78122;SDS011;67376;44.802;10.332;2023-04-06T12:54:34;3.20;;;2.17;;
78122;SDS011;67376;44.802;10.332;2023-04-06T12:56:59;3.58;;;2.15;;
78122;SDS011;67376;44.802;10.332;2023-04-06T12:59:26;2.92;;;1.92;;
78122;SDS011;67376;44.802;10.332;2023-04-06T13:01:51;9.13;;;2.13;;
78122;SDS011;67376;44.802;10.332;2023-04-06T13:04:17;5.07;;;2.33;;
78122;SDS011;67376;44.802;10.332;2023-04-06T13:06:43;6.15;;;2.40;;
78122;SDS011;67376;44.802;10.332;2023-04-06T13:09:08;3.45;;;2.13;;
78122;SDS011;67376;44.802;10.332;2023-04-06T13:11:33;5.72;;;2.50;;
78122;SDS011;67376;44.802;10.332;2023-04-06T13:13:59;3.38;;;1.98;;
78122;SDS011;67376;44.802;10.332;2023-04-06T13:16:25;5.03;;;2.28;;
78122;SDS011;67376;44.802;10.332;2023-04-06T13:18:50;4.40;;;2.38;;
78122;SDS011;67376;44.802;10.332;2023-04-06T13:21:16;3.35;;;2.00;;
78122;SDS011;67376;44.802;10.332;2023-04-06T13:23:41;3.00;;;2.05;;
78122;SDS011;67376;44.802;10.332;2023-04-06T13:26:07;3.88;;;2.08;;
78122;SDS011;67376;44.802;10.332;2023-04-06T13:28:34;4.03;;;2.10;;
78122;SDS011;67376;44.802;10.332;2023-04-06T13:31:00;6.00;;;2.30;;
78122;SDS011;67376;44.802;10.332;2023-04-06T13:33:27;4.18;;;2.30;;
78122;SDS011;67376;44.802;10.332;2023-04-06T13:35:53;2.92;;;2.15;;
78122;SDS011;67376;44.802;10.332;2023-04-06T13:38:19;3.70;;;2.40;;
78122;SDS011;67376;44.802;10.332;2023-04-06T13:40:45;3.60;;;1.98;;
78122;SDS011;67376;44.802;10.332;2023-04-06T13:43:10;2.88;;;2.20;;
78122;SDS011;67376;44.802;10.332;2023-04-06T13:45:36;3.67;;;2.30;;
78122;SDS011;67376;44.802;10.332;2023-04-06T13:48:02;4.40;;;2.10;;
78122;SDS011;67376;44.802;10.332;2023-04-06T13:50:28;2.80;;;2.05;;
78122;SDS011;67376;44.802;10.332;2023-04-06T13:52:53;3.10;;;2.03;;
78122;SDS011;67376;44.802;10.332;2023-04-06T13:55:19;3.85;;;1.92;;
78122;SDS011;67376;44.802;10.332;2023-04-06T13:57:45;2.58;;;1.92;;
78122;SDS011;67376;44.802;10.332;2023-04-06T14:00:10;2.42;;;1.85;;
78122;SDS011;67376;44.802;10.332;2023-04-06T14:02:37;3.85;;;2.30;;
78122;SDS011;67376;44.802;10.332;2023-04-06T14:05:05;3.70;;;2.15;;
78122;SDS011;67376;44.802;10.332;2023-04-06T14:07:31;3.70;;;2.30;;
78122;SDS011;67376;44.802;10.332;2023-04-06T14:09:56;2.70;;;1.80;;
78122;SDS011;67376;44.802;10.332;2023-04-06T14:12:22;3.33;;;2.30;;
78122;SDS011;67376;44.802;10.332;2023-04-06T14:14:47;3.15;;;2.10;;
78122;SDS011;67376;44.802;10.332;2023-04-06T14:17:12;2.75;;;2.05;;
78122;SDS011;67376;44.802;10.332;2023-04-06T14:19:38;4.40;;;1.90;;
78122;SDS011;67376;44.802;10.332;2023-04-06T14:22:04;5.10;;;2.33;;
78122;SDS011;67376;44.802;10.332;2023-04-06T14:24:30;2.58;;;1.98;;
78122;SDS011;67376;44.802;10.332;2023-04-06T14:26:55;3.60;;;2.20;;
78122;SDS011;67376;44.802;10.332;2023-04-06T14:29:21;3.70;;;2.10;;
78122;SDS011;67376;44.802;10.332;2023-04-06T14:31:47;3.10;;;1.90;;
78122;SDS011;67376;44.802;10.332;2023-04-06T14:34:13;4.13;;;2.20;;
78122;SDS011;67376;44.802;10.332;2023-04-06T14:36:38;3.35;;;2.20;;
78122;SDS011;67376;44.802;10.332;2023-04-06T14:39:04;2.80;;;1.98;;
78122;SDS011;67376;44.802;10.332;2023-04-06T14:41:31;2.90;;;2.10;;
78122;SDS011;67376;44.802;10.332;2023-04-06T14:43:57;2.97;;;2.00;;
78122;SDS011;67376;44.802;10.332;2023-04-06T14:46:22;4.03;;;2.47;;
78122;SDS011;67376;44.802;10.332;2023-04-06T14:48:48;3.47;;;2.03;;
78122;SDS011;67376;44.802;10.332;2023-04-06T14:51:13;4.15;;;2.67;;
78122;SDS011;67376;44.802;10.332;2023-04-06T14:53:39;2.72;;;1.90;;